Time;durP1;ratioP1;P1;durP2;ratioP2;P2;SDS_P1;SDS_P2;PMS_P1;PMS_P2;Temp;Humidity;BMP_temperature;BMP_pressure;BME280_temperature;BME280_humidity;BME280_pressure;Samples;Min_cycle;Max_cycle;Signal;HPM_P1;HPM_P2
2023/01/13 00:00:22;;;;;;;;;;;10.70;99.90;;;;;;5021067;28;1951;-74
2023/01/13 00:02:50;;;;;;;;;;;10.70;99.90;;;;;;5025915;28;1528;-75
2023/01/13 00:05:19;;;;;;;;;;;10.60;99.90;;;;;;5025785;28;1646;-75
2023/01/13 00:07:48;;;;;;;;;;;10.60;99.90;;;;;;5024169;28;1284;-74
2023/01/13 00:10:16;;;;;;;;;;;10.60;99.90;;;;;;5023617;28;1007;-74
2023/01/13 00:12:44;;;;;;;;;;;10.60;99.90;;;;;;5024730;28;1001;-74
2023/01/13 00:15:12;;;;;;;;;;;10.60;99.90;;;;;;5026880;28;1365;-74
2023/01/13 00:17:41;;;;;;;;;;;10.60;99.90;;;;;;5023465;28;1005;-75
2023/01/13 00:20:09;;;;;;;;;;;10.60;99.90;;;;;;5027834;28;1983;-75
2023/01/13 00:22:37;;;;;;;;;;;10.60;99.90;;;;;;5022877;28;1524;-74
2023/01/13 00:25:05;;;;;;;;;;;10.50;99.90;;;;;;5022188;28;1438;-74
2023/01/13 00:27:33;;;;;;;;;;;10.50;99.90;;;;;;5028489;28;1065;-74
2023/01/13 00:30:01;;;;;;;;;;;10.40;99.90;;;;;;5025339;28;1109;-74
2023/01/13 00:32:29;;;;;;;;;;;10.30;99.90;;;;;;5030477;28;1116;-74
2023/01/13 00:34:58;;;;;;;;;;;10.30;99.90;;;;;;5022987;28;1279;-74
2023/01/13 00:37:26;;;;;;;;;;;10.30;99.90;;;;;;5021612;28;1045;-75
2023/01/13 00:39:54;;;;;;;;;;;10.30;99.90;;;;;;5021957;28;1995;-76
2023/01/13 00:45:07;;;;;;;;;;;10.30;99.90;;;;;;5025142;28;1324;-75
2023/01/13 00:47:35;;;;;;;;;;;10.20;99.90;;;;;;5022610;28;1120;-75
2023/01/13 00:50:04;;;;;;;;;;;10.20;99.90;;;;;;5025505;28;1132;-74
2023/01/13 00:52:34;;;;;;;;;;;10.10;99.90;;;;;;5023556;28;1024;-76
2023/01/13 00:55:01;;;;;;;;;;;10.00;99.90;;;;;;5021253;28;1456;-75
2023/01/13 00:57:29;;;;;;;;;;;10.00;99.90;;;;;;5027034;28;996;-74
2023/01/13 00:59:57;;;;;;;;;;;10.00;99.90;;;;;;5023889;28;1993;-75
2023/01/13 01:02:25;;;;;;;;;;;9.80;99.90;;;;;;5026917;28;1666;-76
2023/01/13 01:04:52;;;;;;;;;;;9.70;99.90;;;;;;5026170;28;1296;-76
2023/01/13 01:07:21;;;;;;;;;;;9.60;99.90;;;;;;5024150;28;1149;-75
2023/01/13 01:09:49;;;;;;;;;;;9.50;99.90;;;;;;5020833;28;1025;-77
2023/01/13 01:12:17;;;;;;;;;;;9.50;99.90;;;;;;5025576;28;1025;-75
2023/01/13 01:14:45;;;;;;;;;;;9.40;99.90;;;;;;5021232;28;1317;-75
2023/01/13 01:17:12;;;;;;;;;;;9.40;99.90;;;;;;5025203;28;1076;-75
2023/01/13 01:19:41;;;;;;;;;;;9.40;99.90;;;;;;5025748;28;1902;-74
2023/01/13 01:22:08;;;;;;;;;;;9.40;99.90;;;;;;5022625;28;1105;-75
2023/01/13 01:24:37;;;;;;;;;;;9.40;99.90;;;;;;5019202;28;1403;-73
2023/01/13 01:27:05;;;;;;;;;;;9.30;99.90;;;;;;5023241;28;990;-74
2023/01/13 01:29:33;;;;;;;;;;;9.30;99.90;;;;;;5021542;28;1100;-74
2023/01/13 01:32:00;;;;;;;;;;;9.30;99.90;;;;;;5021565;28;1295;-76
2023/01/13 01:34:28;;;;;;;;;;;9.30;99.90;;;;;;5023908;28;1292;-74
2023/01/13 01:36:56;;;;;;;;;;;9.20;99.90;;;;;;5027562;28;1089;-75
2023/01/13 01:39:23;;;;;;;;;;;9.30;99.90;;;;;;5023450;28;1035;-76
2023/01/13 01:44:56;;;;;;;;;;;9.20;99.90;;;;;;5022967;28;1268;-74
2023/01/13 01:47:24;;;;;;;;;;;9.10;99.90;;;;;;5023885;28;1160;-76
2023/01/13 01:49:52;;;;;;;;;;;9.10;99.90;;;;;;5024699;28;1016;-75
2023/01/13 01:52:23;;;;;;;;;;;9.10;99.90;;;;;;5020721;28;1109;-76
2023/01/13 01:54:51;;;;;;;;;;;9.20;99.90;;;;;;5023444;28;1317;-73
2023/01/13 01:57:24;;;;;;;;;;;9.10;99.90;;;;;;5026387;28;1018;-74
2023/01/13 01:59:52;;;;;;;;;;;9.10;99.90;;;;;;5022906;28;1172;-75
2023/01/13 02:02:22;;;;;;;;;;;9.00;99.90;;;;;;5020868;28;1996;-75
2023/01/13 02:04:51;;;;;;;;;;;9.00;99.90;;;;;;5024178;28;1435;-73
2023/01/13 02:07:20;;;;;;;;;;;8.90;99.90;;;;;;5021776;28;1072;-74
2023/01/13 02:09:48;;;;;;;;;;;8.80;99.90;;;;;;5026684;28;1050;-74
2023/01/13 02:12:30;;;;;;;;;;;8.80;99.90;;;;;;5019360;28;1096;-74
2023/01/13 02:15:00;;;;;;;;;;;8.80;99.90;;;;;;5024618;28;1354;-74
2023/01/13 02:17:35;;;;;;;;;;;8.80;99.90;;;;;;5026130;28;1096;-73
2023/01/13 02:20:18;;;;;;;;;;;8.80;99.90;;;;;;5021694;28;1056;-75
2023/01/13 02:22:52;;;;;;;;;;;8.70;99.90;;;;;;5019215;28;1255;-75
2023/01/13 02:25:29;;;;;;;;;;;8.60;99.90;;;;;;5024315;28;1344;-75
2023/01/13 02:28:13;;;;;;;;;;;8.60;99.90;;;;;;5027706;28;1172;-75
2023/01/13 02:33:39;;;;;;;;;;;8.70;99.90;;;;;;5028685;28;1093;-73
2023/01/13 02:36:11;;;;;;;;;;;8.70;99.90;;;;;;5028616;28;1224;-74
2023/01/13 02:38:43;;;;;;;;;;;8.70;99.90;;;;;;5029454;28;1081;-75
2023/01/13 02:44:06;;;;;;;;;;;8.60;99.90;;;;;;5029435;28;1469;-75
2023/01/13 02:46:37;;;;;;;;;;;8.60;99.90;;;;;;5024396;28;1044;-75
2023/01/13 02:49:07;;;;;;;;;;;8.70;99.90;;;;;;5028861;28;1022;-74
2023/01/13 02:51:35;;;;;;;;;;;8.70;99.90;;;;;;5033756;28;1040;-75
2023/01/13 02:54:05;;;;;;;;;;;8.60;99.90;;;;;;5019404;28;1204;-75
2023/01/13 02:56:34;;;;;;;;;;;8.70;99.90;;;;;;5026070;28;1065;-75
2023/01/13 02:59:02;;;;;;;;;;;8.60;99.90;;;;;;5026700;28;1141;-73
2023/01/13 03:01:29;;;;;;;;;;;8.60;99.90;;;;;;5028303;28;1906;-75
2023/01/13 03:03:59;;;;;;;;;;;8.60;99.90;;;;;;5027206;28;1300;-74
2023/01/13 03:06:35;;;;;;;;;;;8.60;99.90;;;;;;5025253;28;1040;-74
2023/01/13 03:09:06;;;;;;;;;;;8.50;99.90;;;;;;5032715;28;1108;-76
2023/01/13 03:11:39;;;;;;;;;;;8.60;99.90;;;;;;5039435;28;1402;-75
2023/01/13 03:14:10;;;;;;;;;;;8.50;99.90;;;;;;5030821;28;1249;-74
2023/01/13 03:16:43;;;;;;;;;;;8.40;99.90;;;;;;5034200;28;1013;-74
2023/01/13 03:19:20;;;;;;;;;;;8.50;99.90;;;;;;5043357;28;1660;-73
2023/01/13 03:21:51;;;;;;;;;;;8.40;99.90;;;;;;5047028;28;1887;-75
2023/01/13 03:24:21;;;;;;;;;;;8.30;99.90;;;;;;5049889;28;1491;-74
2023/01/13 03:26:51;;;;;;;;;;;8.40;99.90;;;;;;5044564;28;1006;-74
2023/01/13 03:29:20;;;;;;;;;;;8.40;99.90;;;;;;5053731;28;1084;-73
2023/01/13 03:31:51;;;;;;;;;;;8.40;99.90;;;;;;5043370;28;1104;-73
2023/01/13 03:34:22;;;;;;;;;;;8.50;99.90;;;;;;5028871;28;1370;-74
2023/01/13 03:36:51;;;;;;;;;;;8.60;99.90;;;;;;5015432;28;1581;-73
2023/01/13 03:39:21;;;;;;;;;;;8.50;99.90;;;;;;5018804;28;1592;-74
2023/01/13 03:41:51;;;;;;;;;;;8.40;99.90;;;;;;5023367;28;1981;-73
2023/01/13 03:44:24;;;;;;;;;;;8.50;99.90;;;;;;5024807;28;1423;-74
2023/01/13 03:46:57;;;;;;;;;;;8.30;99.90;;;;;;5026570;28;1695;-73
2023/01/13 03:49:27;;;;;;;;;;;8.30;99.90;;;;;;5025178;28;1006;-73
2023/01/13 03:51:56;;;;;;;;;;;8.30;99.90;;;;;;5027828;28;963;-73
2023/01/13 03:54:25;;;;;;;;;;;8.30;99.90;;;;;;5026681;28;1264;-73
2023/01/13 03:56:56;;;;;;;;;;;8.30;99.90;;;;;;5027409;28;1082;-74
2023/01/13 03:59:26;;;;;;;;;;;8.20;99.90;;;;;;5026030;28;1868;-74
2023/01/13 04:01:59;;;;;;;;;;;8.10;99.90;;;;;;5023167;28;1923;-73
2023/01/13 04:04:30;;;;;;;;;;;8.20;99.90;;;;;;5022462;28;1456;-74
2023/01/13 04:07:00;;;;;;;;;;;8.10;99.90;;;;;;5019181;28;1093;-74
2023/01/13 04:09:31;;;;;;;;;;;8.00;99.90;;;;;;5025561;28;1663;-73
2023/01/13 04:12:01;;;;;;;;;;;8.00;99.90;;;;;;5026909;28;1096;-73
2023/01/13 04:14:29;;;;;;;;;;;8.00;99.90;;;;;;5019593;28;1915;-73
2023/01/13 04:16:56;;;;;;;;;;;8.00;99.90;;;;;;5024575;28;1085;-76
2023/01/13 04:19:24;;;;;;;;;;;7.90;99.90;;;;;;5024715;28;1410;-73
2023/01/13 04:21:53;;;;;;;;;;;8.10;99.90;;;;;;5025316;28;1997;-74
2023/01/13 04:24:21;;;;;;;;;;;7.80;99.90;;;;;;5030233;28;1582;-74
2023/01/13 04:26:49;;;;;;;;;;;7.80;99.90;;;;;;5024417;28;1160;-74
2023/01/13 04:29:17;;;;;;;;;;;7.80;99.90;;;;;;5019011;28;1284;-74
2023/01/13 04:31:44;;;;;;;;;;;7.70;99.90;;;;;;5027795;28;1097;-74
2023/01/13 04:34:12;;;;;;;;;;;7.70;99.90;;;;;;5027516;28;1294;-74
2023/01/13 04:36:39;;;;;;;;;;;7.70;99.90;;;;;;5028276;28;1172;-74
2023/01/13 04:39:08;;;;;;;;;;;7.70;99.90;;;;;;5023265;28;1059;-74
2023/01/13 04:41:58;;;;;;;;;;;7.70;99.90;;;;;;5023809;28;1910;-74
2023/01/13 04:44:25;;;;;;;;;;;7.70;99.90;;;;;;5022463;28;1415;-74
2023/01/13 04:46:53;;;;;;;;;;;7.70;99.90;;;;;;5022655;28;1873;-76
2023/01/13 04:49:21;;;;;;;;;;;7.70;99.90;;;;;;5023582;28;1055;-76
2023/01/13 04:51:49;;;;;;;;;;;7.60;99.90;;;;;;5020878;28;1029;-76
2023/01/13 04:54:18;;;;;;;;;;;7.60;99.90;;;;;;5029255;28;1534;-75
2023/01/13 04:56:45;;;;;;;;;;;7.60;99.90;;;;;;5023967;28;981;-74
2023/01/13 04:59:13;;;;;;;;;;;7.70;99.90;;;;;;5025847;28;1304;-75
2023/01/13 05:01:41;;;;;;;;;;;7.70;99.90;;;;;;5026708;28;1898;-75
2023/01/13 05:04:14;;;;;;;;;;;7.70;99.90;;;;;;5024052;28;1291;-75
2023/01/13 05:06:41;;;;;;;;;;;7.60;99.90;;;;;;5020538;28;1046;-74
2023/01/13 05:09:11;;;;;;;;;;;7.60;99.90;;;;;;5022963;28;1176;-74
2023/01/13 05:17:12;;;;;;;;;;;7.70;99.90;;;;;;5023638;28;1561;-75
2023/01/13 05:19:40;;;;;;;;;;;7.60;99.90;;;;;;5024771;28;1272;-75
2023/01/13 05:27:40;;;;;;;;;;;7.60;99.90;;;;;;5021572;28;1533;-75
2023/01/13 05:30:08;;;;;;;;;;;7.70;99.90;;;;;;5019273;28;1156;-75
2023/01/13 05:32:35;;;;;;;;;;;7.60;99.90;;;;;;5025557;28;1519;-75
2023/01/13 05:35:03;;;;;;;;;;;7.60;99.90;;;;;;5024514;28;1296;-75
2023/01/13 05:37:31;;;;;;;;;;;7.60;99.90;;;;;;5024548;28;1140;-75
2023/01/13 05:45:30;;;;;;;;;;;7.70;99.90;;;;;;5027082;28;1363;-74
2023/01/13 05:47:58;;;;;;;;;;;7.80;99.90;;;;;;5022235;28;988;-75
2023/01/13 05:50:26;;;;;;;;;;;7.90;99.90;;;;;;5022225;28;1036;-74
2023/01/13 05:52:53;;;;;;;;;;;7.90;99.90;;;;;;5024985;28;1453;-74
2023/01/13 05:55:21;;;;;;;;;;;7.80;99.90;;;;;;5024226;28;1303;-77
2023/01/13 05:57:50;;;;;;;;;;;7.80;99.90;;;;;;5022416;28;1113;-74
2023/01/13 06:00:18;;;;;;;;;;;7.80;99.90;;;;;;5023270;28;1005;-75
2023/01/13 06:02:46;;;;;;;;;;;7.80;99.90;;;;;;5017769;28;1910;-74
2023/01/13 06:05:16;;;;;;;;;;;7.80;99.90;;;;;;5020238;28;1538;-74
2023/01/13 06:07:43;;;;;;;;;;;7.90;99.90;;;;;;5023297;28;1104;-75
2023/01/13 06:10:11;;;;;;;;;;;7.90;99.90;;;;;;5022394;28;1246;-75
2023/01/13 06:12:39;;;;;;;;;;;7.90;99.90;;;;;;5026779;28;1005;-75
2023/01/13 06:15:08;;;;;;;;;;;8.00;99.90;;;;;;5018853;28;1251;-75
2023/01/13 06:17:39;;;;;;;;;;;8.00;99.90;;;;;;5020742;28;1056;-75
2023/01/13 06:20:07;;;;;;;;;;;7.90;99.90;;;;;;5023116;28;1068;-75
2023/01/13 06:22:38;;;;;;;;;;;8.00;99.90;;;;;;5022313;28;1983;-73
2023/01/13 06:25:10;;;;;;;;;;;7.90;99.90;;;;;;5019914;28;1336;-74
2023/01/13 06:27:38;;;;;;;;;;;7.80;99.90;;;;;;5027119;28;908;-75
2023/01/13 06:30:07;;;;;;;;;;;7.80;99.90;;;;;;5022722;28;1029;-75
2023/01/13 06:32:38;;;;;;;;;;;7.80;99.90;;;;;;5022250;28;1608;-75
2023/01/13 06:35:09;;;;;;;;;;;7.90;99.90;;;;;;5025059;28;1683;-74
2023/01/13 06:37:37;;;;;;;;;;;7.80;99.90;;;;;;5023638;28;982;-76
2023/01/13 06:40:06;;;;;;;;;;;7.60;99.90;;;;;;5021576;28;1279;-75
2023/01/13 06:45:21;;;;;;;;;;;7.70;99.90;;;;;;5023251;28;1275;-76
2023/01/13 06:47:50;;;;;;;;;;;7.70;99.90;;;;;;5021191;28;1555;-75
2023/01/13 06:50:18;;;;;;;;;;;7.80;99.90;;;;;;5026232;28;1117;-75
2023/01/13 06:52:46;;;;;;;;;;;7.90;99.90;;;;;;5020836;28;1352;-77
2023/01/13 06:55:13;;;;;;;;;;;7.80;99.90;;;;;;5012187;28;1685;-76
2023/01/13 06:57:48;;;;;;;;;;;8.40;99.90;;;;;;5018490;28;1751;-75
2023/01/13 07:00:16;;;;;;;;;;;8.40;99.90;;;;;;5016342;28;1605;-77
2023/01/13 07:02:43;;;;;;;;;;;8.80;99.90;;;;;;5020202;28;1879;-77
2023/01/13 07:05:13;;;;;;;;;;;8.40;99.90;;;;;;5016225;28;1751;-76
2023/01/13 07:07:41;;;;;;;;;;;8.40;99.90;;;;;;5020968;28;1676;-75
2023/01/13 07:10:12;;;;;;;;;;;8.40;99.90;;;;;;5019416;28;1049;-75
2023/01/13 07:15:27;;;;;;;;;;;8.30;99.90;;;;;;5021693;28;1550;-76
2023/01/13 07:17:54;;;;;;;;;;;8.30;99.90;;;;;;5026222;28;1005;-75
2023/01/13 07:20:23;;;;;;;;;;;8.30;99.90;;;;;;5026988;28;1065;-76
2023/01/13 07:22:53;;;;;;;;;;;8.30;99.90;;;;;;5025335;28;1903;-76
2023/01/13 07:25:20;;;;;;;;;;;8.20;99.90;;;;;;5028203;28;1255;-76
2023/01/13 07:27:48;;;;;;;;;;;8.30;99.90;;;;;;5027798;28;1544;-76
2023/01/13 07:30:16;;;;;;;;;;;8.30;99.90;;;;;;5020134;28;1089;-76
2023/01/13 07:32:43;;;;;;;;;;;8.30;99.90;;;;;;5023362;28;1295;-77
2023/01/13 07:35:11;;;;;;;;;;;8.30;99.90;;;;;;5024180;28;1596;-76
2023/01/13 07:37:40;;;;;;;;;;;8.30;99.90;;;;;;5022393;28;1044;-76
2023/01/13 07:40:09;;;;;;;;;;;8.30;99.90;;;;;;5025788;28;1100;-75
2023/01/13 07:45:23;;;;;;;;;;;8.20;99.90;;;;;;5023416;28;1975;-76
2023/01/13 07:47:51;;;;;;;;;;;8.20;99.90;;;;;;5026270;28;1101;-75
2023/01/13 07:50:19;;;;;;;;;;;8.20;99.90;;;;;;5026285;28;1156;-77
2023/01/13 07:52:48;;;;;;;;;;;8.10;99.90;;;;;;5029566;28;1128;-76
2023/01/13 07:55:16;;;;;;;;;;;8.10;99.90;;;;;;5026464;28;1259;-76
2023/01/13 07:57:44;;;;;;;;;;;8.10;99.90;;;;;;5026382;28;1181;-77
2023/01/13 08:00:12;;;;;;;;;;;8.10;99.90;;;;;;5027513;28;993;-78
2023/01/13 08:02:40;;;;;;;;;;;8.10;99.90;;;;;;5030000;28;1259;-79
2023/01/13 08:05:09;;;;;;;;;;;8.10;99.90;;;;;;5029243;28;1906;-80
2023/01/13 08:07:36;;;;;;;;;;;8.10;99.90;;;;;;5025685;28;1731;-75
2023/01/13 08:10:06;;;;;;;;;;;8.10;99.90;;;;;;5027748;28;1113;-76
2023/01/13 08:15:23;;;;;;;;;;;8.30;99.90;;;;;;5026467;28;1363;-76
2023/01/13 08:17:50;;;;;;;;;;;8.30;99.90;;;;;;5025314;28;1572;-76
2023/01/13 08:20:18;;;;;;;;;;;8.40;99.90;;;;;;5026494;28;1124;-76
2023/01/13 08:22:46;;;;;;;;;;;8.40;99.90;;;;;;5024758;28;1652;-76
2023/01/13 08:25:16;;;;;;;;;;;8.50;99.90;;;;;;5025409;28;1983;-76
2023/01/13 08:27:44;;;;;;;;;;;8.50;99.90;;;;;;5023999;28;1101;-77
2023/01/13 08:30:12;;;;;;;;;;;8.50;99.90;;;;;;5026357;28;1028;-76
2023/01/13 08:32:39;;;;;;;;;;;8.60;99.90;;;;;;5026053;28;816;-76
2023/01/13 08:35:08;;;;;;;;;;;8.60;99.90;;;;;;5024034;28;1536;-75
2023/01/13 08:37:35;;;;;;;;;;;8.60;99.90;;;;;;5020921;28;1711;-76
2023/01/13 08:40:03;;;;;;;;;;;8.60;99.90;;;;;;5022956;28;1469;-75
2023/01/13 08:42:32;;;;;;;;;;;8.60;99.90;;;;;;5029779;28;993;-75
2023/01/13 08:45:00;;;;;;;;;;;8.70;99.90;;;;;;5021492;28;1906;-74
2023/01/13 08:47:28;;;;;;;;;;;8.70;99.90;;;;;;5027348;28;1613;-75
2023/01/13 08:49:55;;;;;;;;;;;8.60;99.90;;;;;;5028284;28;1214;-75
2023/01/13 08:52:24;;;;;;;;;;;8.70;99.90;;;;;;5022520;28;1109;-74
2023/01/13 08:54:52;;;;;;;;;;;8.80;99.90;;;;;;5025768;28;1368;-73
2023/01/13 08:57:20;;;;;;;;;;;8.80;99.90;;;;;;5023868;28;1073;-73
2023/01/13 08:59:49;;;;;;;;;;;8.80;99.90;;;;;;5024889;28;1164;-74
2023/01/13 09:02:18;;;;;;;;;;;8.90;99.90;;;;;;5026091;28;1421;-75
2023/01/13 09:04:46;;;;;;;;;;;8.90;99.90;;;;;;5023034;28;1977;-74
2023/01/13 09:07:14;;;;;;;;;;;8.80;99.90;;;;;;5022654;28;1703;-75
2023/01/13 09:09:42;;;;;;;;;;;8.90;99.90;;;;;;5023547;28;1207;-74
2023/01/13 09:14:57;;;;;;;;;;;8.90;99.90;;;;;;5022640;28;1320;-74
2023/01/13 09:17:26;;;;;;;;;;;8.90;99.90;;;;;;5021967;28;1092;-74
2023/01/13 09:19:53;;;;;;;;;;;8.90;99.90;;;;;;5023306;28;1487;-73
2023/01/13 09:22:25;;;;;;;;;;;8.90;99.90;;;;;;5022082;28;1524;-73
2023/01/13 09:24:53;;;;;;;;;;;8.90;99.90;;;;;;5025054;28;1910;-75
2023/01/13 09:27:21;;;;;;;;;;;8.90;99.90;;;;;;5022179;28;1560;-75
2023/01/13 09:29:49;;;;;;;;;;;9.00;99.90;;;;;;5025038;28;1001;-74
2023/01/13 09:32:18;;;;;;;;;;;8.90;99.90;;;;;;5025947;28;1067;-74
2023/01/13 09:35:01;;;;;;;;;;;8.90;99.90;;;;;;5022514;28;1580;-76
2023/01/13 09:37:30;;;;;;;;;;;8.90;99.90;;;;;;5026819;28;1109;-75
2023/01/13 09:39:57;;;;;;;;;;;9.00;99.90;;;;;;5022062;28;1466;-74
2023/01/13 09:45:17;;;;;;;;;;;9.10;99.90;;;;;;5019729;28;1985;-74
2023/01/13 09:47:51;;;;;;;;;;;9.00;99.90;;;;;;5020105;28;1615;-74
2023/01/13 09:50:21;;;;;;;;;;;9.20;99.90;;;;;;5021944;28;1638;-74
2023/01/13 09:52:50;;;;;;;;;;;9.20;99.90;;;;;;5022382;28;1052;-74
2023/01/13 09:55:19;;;;;;;;;;;9.10;99.90;;;;;;5023507;28;1537;-74
2023/01/13 09:57:47;;;;;;;;;;;9.10;99.90;;;;;;5024678;28;1196;-73
2023/01/13 10:00:17;;;;;;;;;;;9.10;99.90;;;;;;5024543;28;1608;-74
2023/01/13 10:03:04;;;;;;;;;;;9.10;99.90;;;;;;5022239;28;1129;-74
2023/01/13 10:05:36;;;;;;;;;;;9.10;99.90;;;;;;5021493;28;1910;-74
2023/01/13 10:08:07;;;;;;;;;;;9.20;99.90;;;;;;5017380;28;1730;-74
2023/01/13 10:10:38;;;;;;;;;;;9.10;99.90;;;;;;5021292;28;1723;-74
2023/01/13 10:13:18;;;;;;;;;;;9.10;99.90;;;;;;5023042;28;997;-75
2023/01/13 10:15:52;;;;;;;;;;;9.10;99.90;;;;;;5022864;28;1462;-75
2023/01/13 10:18:24;;;;;;;;;;;9.20;99.90;;;;;;5022689;28;1736;-77
2023/01/13 10:21:00;;;;;;;;;;;9.10;99.90;;;;;;5018386;28;1098;-77
2023/01/13 10:23:33;;;;;;;;;;;9.10;99.90;;;;;;5021708;28;1176;-76
2023/01/13 10:26:06;;;;;;;;;;;9.20;99.90;;;;;;5025859;28;1886;-77
2023/01/13 10:28:33;;;;;;;;;;;9.20;99.90;;;;;;5026824;28;1100;-77
2023/01/13 10:31:02;;;;;;;;;;;9.20;99.90;;;;;;5023684;28;1097;-76
2023/01/13 10:33:31;;;;;;;;;;;9.30;99.90;;;;;;5024278;28;1096;-75
2023/01/13 10:36:00;;;;;;;;;;;9.30;99.90;;;;;;5022042;28;1287;-75
2023/01/13 10:38:30;;;;;;;;;;;9.40;99.90;;;;;;5019815;28;1666;-75
2023/01/13 10:40:59;;;;;;;;;;;9.40;99.90;;;;;;5024647;28;1322;-76
2023/01/13 10:43:28;;;;;;;;;;;9.40;99.90;;;;;;5023702;28;1117;-76
2023/01/13 10:46:00;;;;;;;;;;;9.40;99.90;;;;;;5021336;28;1987;-76
2023/01/13 10:48:34;;;;;;;;;;;9.40;99.90;;;;;;5021616;28;1175;-77
2023/01/13 10:51:12;;;;;;;;;;;9.50;99.90;;;;;;5022756;28;1265;-75
2023/01/13 10:53:49;;;;;;;;;;;9.30;99.90;;;;;;5024793;28;1548;-76
2023/01/13 10:56:18;;;;;;;;;;;9.10;99.90;;;;;;5023918;28;1272;-76
2023/01/13 10:58:46;;;;;;;;;;;9.00;99.90;;;;;;5026528;28;1599;-77
2023/01/13 11:01:19;;;;;;;;;;;9.00;99.90;;;;;;5030410;28;1263;-76
2023/01/13 11:03:48;;;;;;;;;;;8.90;99.90;;;;;;5026416;28;1561;-77
2023/01/13 11:06:20;;;;;;;;;;;8.80;99.90;;;;;;5028371;28;1981;-77
2023/01/13 11:08:49;;;;;;;;;;;8.60;99.90;;;;;;5027397;28;1598;-77
2023/01/13 11:11:36;;;;;;;;;;;8.50;99.90;;;;;;5026475;28;1326;-77
2023/01/13 11:16:55;;;;;;;;;;;8.40;99.90;;;;;;5026984;28;1147;-77
2023/01/13 11:19:27;;;;;;;;;;;8.40;99.90;;;;;;5023423;28;1837;-77
2023/01/13 11:22:05;;;;;;;;;;;8.40;99.90;;;;;;5028157;28;1516;-77
2023/01/13 11:24:35;;;;;;;;;;;8.40;99.90;;;;;;5027410;28;1454;-76
2023/01/13 11:27:06;;;;;;;;;;;8.40;99.90;;;;;;5028000;28;1914;-77
2023/01/13 11:29:38;;;;;;;;;;;8.50;99.90;;;;;;5025982;28;1097;-77
2023/01/13 11:32:09;;;;;;;;;;;8.50;99.90;;;;;;5024728;28;1494;-76
2023/01/13 11:34:43;;;;;;;;;;;8.50;99.90;;;;;;5021767;28;1405;-75
2023/01/13 11:37:17;;;;;;;;;;;8.60;99.90;;;;;;5022745;28;1097;-75
2023/01/13 11:39:48;;;;;;;;;;;8.80;99.90;;;;;;5025439;28;1116;-76
2023/01/13 11:42:23;;;;;;;;;;;8.80;99.90;;;;;;5023902;28;1481;-76
2023/01/13 11:45:00;;;;;;;;;;;8.90;99.90;;;;;;5026933;28;1351;-73
2023/01/13 11:47:27;;;;;;;;;;;9.00;99.90;;;;;;5018771;28;1960;-74
2023/01/13 11:49:56;;;;;;;;;;;9.00;99.90;;;;;;5024603;28;1469;-74
2023/01/13 11:52:32;;;;;;;;;;;9.00;99.90;;;;;;5021421;28;1100;-75
2023/01/13 11:55:05;;;;;;;;;;;9.10;99.90;;;;;;5019893;28;1528;-75
2023/01/13 11:57:49;;;;;;;;;;;9.10;99.90;;;;;;5024210;28;1180;-75
2023/01/13 12:00:26;;;;;;;;;;;9.10;99.90;;;;;;5017876;28;1696;-74
2023/01/13 12:02:58;;;;;;;;;;;9.10;99.90;;;;;;5020311;28;1148;-74
2023/01/13 12:05:34;;;;;;;;;;;9.10;99.90;;;;;;5024880;28;2017;-77
2023/01/13 12:08:09;;;;;;;;;;;9.10;99.90;;;;;;5023072;28;1084;-76
2023/01/13 12:10:42;;;;;;;;;;;9.10;99.90;;;;;;5023017;28;1211;-75
2023/01/13 12:13:14;;;;;;;;;;;9.10;99.90;;;;;;5022440;28;1398;-75
2023/01/13 12:15:58;;;;;;;;;;;9.00;99.90;;;;;;5019976;28;1666;-75
2023/01/13 12:18:32;;;;;;;;;;;8.90;99.90;;;;;;5023339;28;1140;-75
2023/01/13 12:21:08;;;;;;;;;;;8.90;99.90;;;;;;5021582;28;1343;-75
2023/01/13 12:23:38;;;;;;;;;;;8.80;99.90;;;;;;5020333;28;1355;-75
2023/01/13 12:26:07;;;;;;;;;;;8.80;99.90;;;;;;5022511;28;1899;-75
2023/01/13 12:28:41;;;;;;;;;;;8.70;99.90;;;;;;4986308;28;998385;-75
2023/01/13 12:31:09;;;;;;;;;;;8.80;99.90;;;;;;5023248;28;1316;-75
2023/01/13 12:33:44;;;;;;;;;;;8.80;99.90;;;;;;5023734;28;1072;-75
2023/01/13 12:36:15;;;;;;;;;;;8.80;99.90;;;;;;5023796;28;1742;-75
2023/01/13 12:38:46;;;;;;;;;;;8.70;99.90;;;;;;5024902;28;1344;-74
2023/01/13 12:41:17;;;;;;;;;;;8.70;99.90;;;;;;5024106;28;1014;-75
2023/01/13 12:46:44;;;;;;;;;;;8.80;99.90;;;;;;5025793;28;1898;-76
2023/01/13 12:49:18;;;;;;;;;;;8.70;99.90;;;;;;5026801;28;1064;-75
2023/01/13 12:52:11;;;;;;;;;;;8.70;99.90;;;;;;5026648;28;1504;-75
2023/01/13 12:54:57;;;;;;;;;;;8.90;99.90;;;;;;5029413;28;1357;-75
2023/01/13 12:57:26;;;;;;;;;;;8.80;99.90;;;;;;5024288;28;1086;-75
2023/01/13 13:00:09;;;;;;;;;;;8.60;99.90;;;;;;5023680;28;1033;-76
2023/01/13 13:02:37;;;;;;;;;;;8.60;99.90;;;;;;5026478;28;1272;-75
2023/01/13 13:05:23;;;;;;;;;;;8.50;99.90;;;;;;5024613;28;1355;-75
2023/01/13 13:08:00;;;;;;;;;;;8.40;99.90;;;;;;5024755;28;1964;-75
2023/01/13 13:10:29;;;;;;;;;;;8.40;99.90;;;;;;5018437;28;1025;-75
2023/01/13 13:15:51;;;;;;;;;;;8.40;99.90;;;;;;5025819;28;1402;-75
2023/01/13 13:18:27;;;;;;;;;;;8.40;99.90;;;;;;5020755;28;1002;-74
2023/01/13 13:20:57;;;;;;;;;;;8.50;99.90;;;;;;5023640;28;1016;-75
2023/01/13 13:23:46;;;;;;;;;;;8.60;99.90;;;;;;5022983;28;1740;-75
2023/01/13 13:26:28;;;;;;;;;;;8.60;99.90;;;;;;5022485;28;1987;-76
2023/01/13 13:29:05;;;;;;;;;;;8.60;99.90;;;;;;5022807;28;1005;-75
2023/01/13 13:31:40;;;;;;;;;;;8.70;99.90;;;;;;5022172;28;1108;-76
2023/01/13 13:34:13;;;;;;;;;;;8.60;99.90;;;;;;5022133;28;1392;-76
2023/01/13 13:36:56;;;;;;;;;;;8.80;99.90;;;;;;5023855;28;1326;-76
2023/01/13 13:47:41;;;;;;;;;;;8.60;99.90;;;;;;5019173;28;1964;-74
2023/01/13 13:50:12;;;;;;;;;;;8.50;99.90;;;;;;5024662;28;1495;-76
2023/01/13 13:52:43;;;;;;;;;;;8.50;99.90;;;;;;5020823;28;1523;-76
2023/01/13 13:55:17;;;;;;;;;;;8.30;99.90;;;;;;5022199;28;1668;-75
2023/01/13 13:57:47;;;;;;;;;;;8.40;99.90;;;;;;5020124;28;1107;-77
2023/01/13 14:00:25;;;;;;;;;;;8.40;99.90;;;;;;5024657;28;1087;-76
2023/01/13 14:02:54;;;;;;;;;;;8.40;99.90;;;;;;5023432;28;1069;-77
2023/01/13 14:05:24;;;;;;;;;;;8.50;99.90;;;;;;5021280;28;1312;-77
2023/01/13 14:07:57;;;;;;;;;;;8.40;99.90;;;;;;5023843;28;1952;-77
2023/01/13 14:10:30;;;;;;;;;;;8.50;99.90;;;;;;5025269;28;1288;-76
2023/01/13 14:13:02;;;;;;;;;;;8.50;99.90;;;;;;5021597;28;1105;-75
2023/01/13 14:15:33;;;;;;;;;;;8.50;99.90;;;;;;5024416;28;1436;-72
2023/01/13 14:18:02;;;;;;;;;;;8.40;99.90;;;;;;5018039;28;1164;-73
2023/01/13 14:20:33;;;;;;;;;;;8.40;99.90;;;;;;5018839;28;1275;-73
2023/01/13 14:23:04;;;;;;;;;;;8.20;99.90;;;;;;5018563;28;1151;-76
2023/01/13 14:25:33;;;;;;;;;;;8.20;99.90;;;;;;5023037;28;1372;-75
2023/01/13 14:28:07;;;;;;;;;;;8.10;99.90;;;;;;5020550;28;1910;-76
2023/01/13 14:30:36;;;;;;;;;;;8.10;99.90;;;;;;5023461;28;1287;-76
2023/01/13 14:33:05;;;;;;;;;;;8.20;99.90;;;;;;5024537;28;1635;-76
2023/01/13 14:35:33;;;;;;;;;;;8.20;99.90;;;;;;5029553;28;1390;-77
2023/01/13 14:38:01;;;;;;;;;;;8.10;99.90;;;;;;5019695;28;1474;-76
2023/01/13 14:40:44;;;;;;;;;;;8.10;99.90;;;;;;5023061;28;1179;-75
2023/01/13 14:43:16;;;;;;;;;;;8.20;99.90;;;;;;5018869;28;1172;-75
2023/01/13 14:45:53;;;;;;;;;;;8.20;99.90;;;;;;5019504;28;1352;-76
2023/01/13 14:48:22;;;;;;;;;;;8.20;99.90;;;;;;5022772;28;1983;-75
2023/01/13 14:50:50;;;;;;;;;;;8.30;99.90;;;;;;5022571;28;1014;-74
2023/01/13 14:53:28;;;;;;;;;;;8.20;99.90;;;;;;5027396;28;1572;-75
2023/01/13 14:55:57;;;;;;;;;;;8.30;99.90;;;;;;5019543;28;1309;-73
2023/01/13 14:58:28;;;;;;;;;;;8.30;99.90;;;;;;5022740;28;1175;-74
2023/01/13 15:01:14;;;;;;;;;;;8.30;99.90;;;;;;5023832;28;1167;-76
2023/01/13 15:03:42;;;;;;;;;;;8.30;99.90;;;;;;5020348;28;1481;-75
2023/01/13 15:06:26;;;;;;;;;;;8.40;99.90;;;;;;5021827;28;1172;-74
2023/01/13 15:08:53;;;;;;;;;;;8.50;99.90;;;;;;5020946;28;2046;-75
2023/01/13 15:11:23;;;;;;;;;;;8.30;99.90;;;;;;5020296;28;1148;-74
2023/01/13 15:13:57;;;;;;;;;;;8.20;99.90;;;;;;5016136;28;1356;-74
2023/01/13 15:16:25;;;;;;;;;;;8.20;99.90;;;;;;5018299;28;1036;-75
2023/01/13 15:18:54;;;;;;;;;;;8.10;99.90;;;;;;5021147;28;1057;-74
2023/01/13 15:21:22;;;;;;;;;;;8.10;99.90;;;;;;5022369;28;1304;-75
2023/01/13 15:23:49;;;;;;;;;;;8.20;99.90;;;;;;5023049;28;1212;-74
2023/01/13 15:26:19;;;;;;;;;;;8.10;99.90;;;;;;5021917;28;1641;-75
2023/01/13 15:28:47;;;;;;;;;;;8.00;99.90;;;;;;5021773;28;1906;-75
2023/01/13 15:31:16;;;;;;;;;;;8.00;99.90;;;;;;5020338;28;1033;-75
2023/01/13 15:33:44;;;;;;;;;;;7.80;99.90;;;;;;5023954;28;1386;-74
2023/01/13 15:36:26;;;;;;;;;;;7.80;99.90;;;;;;5019234;28;970;-74
2023/01/13 15:38:54;;;;;;;;;;;7.80;99.90;;;;;;5025808;28;1622;-75
2023/01/13 15:46:51;;;;;;;;;;;7.60;99.90;;;;;;5023600;28;1135;-74
2023/01/13 15:49:23;;;;;;;;;;;7.60;99.90;;;;;;5024668;28;1997;-75
2023/01/13 15:51:50;;;;;;;;;;;7.50;99.90;;;;;;5025036;28;1152;-76
2023/01/13 15:54:21;;;;;;;;;;;7.60;99.90;;;;;;5026340;28;1754;-75
2023/01/13 15:56:49;;;;;;;;;;;7.50;99.90;;;;;;5021067;28;986;-74
2023/01/13 15:59:18;;;;;;;;;;;7.40;99.90;;;;;;5025348;28;1100;-76
2023/01/13 16:01:46;;;;;;;;;;;7.40;99.90;;;;;;5027097;28;1090;-74
2023/01/13 16:04:15;;;;;;;;;;;7.50;99.90;;;;;;5026531;28;1345;-74
2023/01/13 16:06:42;;;;;;;;;;;7.40;99.90;;;;;;5025093;28;1676;-74
2023/01/13 16:09:12;;;;;;;;;;;7.40;99.90;;;;;;5023159;28;2005;-74